createdAt,value
2019-05-16T00:00:29.508Z,37.51
2019-05-16T00:03:01.248Z,37.58
2019-05-16T00:05:32.539Z,37.64
2019-05-16T00:08:04.127Z,37.74
2019-05-16T00:10:35.289Z,37.72
2019-05-16T00:13:08.482Z,37.75
2019-05-16T00:15:39.428Z,37.75
2019-05-16T00:18:10.707Z,38.37
2019-05-16T00:20:42.016Z,38.52
2019-05-16T00:23:13.275Z,38.44
2019-05-16T00:25:44.522Z,38.41
2019-05-16T00:28:17.971Z,38.38
2019-05-16T00:30:50.194Z,38.35
2019-05-16T00:33:21.411Z,38.31
2019-05-16T00:36:02.490Z,38.35
2019-05-16T00:38:27.743Z,38.36
2019-05-16T00:40:59.134Z,38.43
2019-05-16T00:43:30.376Z,38.80
2019-05-16T00:46:01.609Z,39.03
2019-05-16T00:48:32.994Z,39.05
2019-05-16T00:51:04.545Z,39.24
2019-05-16T00:53:38.084Z,39.17
2019-05-16T00:56:08.999Z,39.11
2019-05-16T00:58:40.230Z,39.06
2019-05-16T01:01:11.614Z,39.02
2019-05-16T01:03:42.887Z,39.00
2019-05-16T01:06:19.870Z,38.97
2019-05-16T01:08:48.800Z,38.91
2019-05-16T01:11:21.537Z,38.91
2019-05-16T01:13:52.767Z,38.93
2019-05-16T01:16:24.004Z,38.90
2019-05-16T01:18:55.143Z,38.92
2019-05-16T01:21:28.573Z,38.87
2019-05-16T01:23:59.174Z,38.89
2019-05-16T01:26:30.357Z,38.83
2019-05-16T01:29:01.597Z,38.86
2019-05-16T01:31:32.794Z,38.85
2019-05-16T01:34:05.130Z,38.84
2019-05-16T01:36:39.952Z,38.85
2019-05-16T01:39:09.389Z,38.83
2019-05-16T01:41:40.762Z,38.82
2019-05-16T01:44:11.953Z,38.81
2019-05-16T01:46:43.152Z,38.81
2019-05-16T01:49:14.324Z,38.84
2019-05-16T01:51:45.503Z,38.83
2019-05-16T01:54:18.017Z,38.84
2019-05-16T01:56:49.332Z,38.88
2019-05-16T01:59:20.707Z,38.88
2019-05-16T02:01:53.567Z,38.88
2019-05-16T02:04:24.810Z,38.93
2019-05-16T02:06:58.293Z,38.92
2019-05-16T02:09:28.852Z,38.95
2019-05-16T02:11:59.972Z,38.93
2019-05-16T02:14:31.176Z,38.91
2019-05-16T02:17:02.339Z,38.96
2019-05-16T02:19:33.549Z,38.96
2019-05-16T02:22:04.796Z,38.96
2019-05-16T02:24:38.428Z,39.02
2019-05-16T02:27:09.676Z,39.06
2019-05-16T02:29:40.914Z,39.09
2019-05-16T02:32:12.088Z,39.19
2019-05-16T02:34:43.308Z,39.26
2019-05-16T02:37:24.619Z,39.31
2019-05-16T02:39:47.382Z,39.40
2019-05-16T02:42:21.267Z,39.42
2019-05-16T02:44:51.618Z,39.43
2019-05-16T02:47:22.936Z,39.48
2019-05-16T02:49:54.306Z,39.54
2019-05-16T02:52:25.697Z,39.56
2019-05-16T02:54:56.901Z,39.59
2019-05-16T02:57:31.321Z,39.66
2019-05-16T03:00:02.441Z,39.68
2019-05-16T03:02:33.738Z,39.73
2019-05-16T03:05:04.994Z,39.71
2019-05-16T03:07:41.894Z,39.76
2019-05-16T03:10:11.071Z,39.78
2019-05-16T03:12:43.876Z,39.84
2019-05-16T03:15:15.123Z,39.98
2019-05-16T03:17:47.387Z,40.05
2019-05-16T03:20:21.219Z,40.11
2019-05-16T03:22:52.115Z,40.16
2019-05-16T03:25:23.518Z,40.21
2019-05-16T03:27:54.963Z,40.27
2019-05-16T03:30:26.225Z,40.35
2019-05-16T03:32:57.430Z,40.49
2019-05-16T03:35:33.354Z,40.69
2019-05-16T03:38:05.343Z,40.74
2019-05-16T03:40:36.311Z,40.87
2019-05-16T03:43:07.576Z,40.96
2019-05-16T03:45:41.824Z,41.08
2019-05-16T03:48:12.341Z,41.13
2019-05-16T03:50:43.568Z,41.30
2019-05-16T03:53:14.839Z,41.45
2019-05-16T03:55:46.034Z,41.63
2019-05-16T03:58:22.116Z,41.71
2019-05-16T04:00:54.592Z,41.83
2019-05-16T04:03:28.958Z,41.98
2019-05-16T04:06:01.151Z,42.14
2019-05-16T04:08:33.145Z,42.20
2019-05-16T04:11:04.341Z,42.25
2019-05-16T04:13:35.503Z,42.50
2019-05-16T04:16:06.814Z,42.65
2019-05-16T04:18:38.117Z,42.72
2019-05-16T04:21:11.754Z,42.83
2019-05-16T04:23:42.872Z,42.97
2019-05-16T04:26:14.245Z,43.14
2019-05-16T04:28:45.831Z,43.21
2019-05-16T04:31:17.166Z,43.35
2019-05-16T04:33:51.417Z,43.43
2019-05-16T04:36:21.630Z,43.62
2019-05-16T04:38:52.869Z,43.74
2019-05-16T04:41:24.108Z,43.88
2019-05-16T04:43:55.374Z,43.97
2019-05-16T04:46:26.906Z,44.10
2019-05-16T04:49:01.475Z,44.26
2019-05-16T04:51:31.321Z,44.34
2019-05-16T04:54:06.748Z,44.43
2019-05-16T04:56:35.539Z,44.45
2019-05-16T04:59:06.895Z,44.68
2019-05-16T05:01:41.081Z,44.90
2019-05-16T05:04:15.280Z,44.98
2019-05-16T05:06:44.267Z,45.15
2019-05-16T05:09:15.737Z,45.33
2019-05-16T05:11:47.142Z,45.43
2019-05-16T05:14:21.057Z,45.54
2019-05-16T05:16:51.396Z,45.59
2019-05-16T05:19:22.762Z,45.83
2019-05-16T05:21:54.097Z,46.00
2019-05-16T05:24:25.340Z,46.15
2019-05-16T05:26:56.699Z,46.23
2019-05-16T05:29:30.551Z,46.37
2019-05-16T05:32:04.379Z,46.62
2019-05-16T05:34:34.227Z,46.71
2019-05-16T05:37:05.588Z,46.87
2019-05-16T05:39:39.736Z,47.00
2019-05-16T05:42:11.115Z,47.07
2019-05-16T05:44:42.433Z,47.16
2019-05-16T05:47:13.914Z,47.28
2019-05-16T05:49:45.366Z,47.46
2019-05-16T05:52:16.667Z,47.57
2019-05-16T05:54:50.151Z,47.66
2019-05-16T05:57:21.040Z,47.77
2019-05-16T05:59:52.265Z,47.78
2019-05-16T06:02:23.501Z,47.96
2019-05-16T06:04:54.787Z,48.09
2019-05-16T06:07:26.036Z,48.11
2019-05-16T06:09:57.310Z,48.18
2019-05-16T06:12:30.322Z,48.18
2019-05-16T06:15:08.429Z,48.51
2019-05-16T06:17:35.222Z,48.52
2019-05-16T06:20:14.062Z,48.59
2019-05-16T06:22:40.509Z,48.66
2019-05-16T06:25:13.170Z,48.66
2019-05-16T06:27:44.871Z,48.82
2019-05-16T06:30:16.737Z,48.89
2019-05-16T06:32:50.158Z,49.06
2019-05-16T06:35:23.954Z,51.46
2019-05-16T06:37:54.266Z,51.70
2019-05-16T06:40:26.516Z,51.35
2019-05-16T06:43:00.230Z,51.07
2019-05-16T06:45:32.062Z,50.97
2019-05-16T06:48:03.432Z,50.88
2019-05-16T06:50:34.940Z,50.84
2019-05-16T06:53:06.192Z,50.65
2019-05-16T06:55:37.444Z,50.70
2019-05-16T06:58:10.605Z,50.61
2019-05-16T07:00:41.623Z,50.72
2019-05-16T07:03:12.862Z,50.70
2019-05-16T07:05:44.148Z,50.70
2019-05-16T07:08:15.411Z,50.81
2019-05-16T07:10:46.833Z,50.82
2019-05-16T07:13:19.655Z,50.79
2019-05-16T07:15:51.271Z,50.84
2019-05-16T07:18:22.620Z,50.86
2019-05-16T07:20:54.391Z,50.77
2019-05-16T07:23:25.981Z,50.92
2019-05-16T07:25:57.446Z,50.88
2019-05-16T07:28:30.184Z,50.96
2019-05-16T07:31:14.467Z,51.01
2019-05-16T07:33:34.644Z,51.05
2019-05-16T07:36:06.075Z,51.14
2019-05-16T07:38:39.876Z,51.08
2019-05-16T07:41:14.013Z,51.10
2019-05-16T07:43:43.594Z,51.14
2019-05-16T07:46:14.955Z,51.26
2019-05-16T07:48:46.183Z,51.20
2019-05-16T07:51:17.467Z,51.17
2019-05-16T07:53:50.465Z,51.31
2019-05-16T07:56:21.769Z,51.34
2019-05-16T07:58:53.135Z,51.18
2019-05-16T08:01:24.379Z,51.40
2019-05-16T08:03:59.855Z,51.29
2019-05-16T08:06:33.872Z,51.47
2019-05-16T08:09:07.723Z,51.58
2019-05-16T08:11:40.663Z,51.48
2019-05-16T08:14:11.337Z,51.61
2019-05-16T08:16:42.565Z,51.61
2019-05-16T08:19:13.819Z,51.69
2019-05-16T08:21:45.227Z,51.80
2019-05-16T08:24:16.505Z,51.71
2019-05-16T08:26:50.506Z,51.63
2019-05-16T08:29:22.125Z,51.57
2019-05-16T08:31:53.893Z,51.61
2019-05-16T08:34:25.359Z,51.71
2019-05-16T08:36:56.664Z,51.67
2019-05-16T08:39:30.580Z,51.69
2019-05-16T08:42:08.166Z,51.77
2019-05-16T08:44:34.036Z,51.88
2019-05-16T08:49:41.901Z,51.65
2019-05-16T08:50:05.529Z,51.87
2019-05-16T08:52:11.781Z,51.80
2019-05-16T08:54:44.141Z,51.71
2019-05-16T08:57:27.121Z,51.78
2019-05-16T09:02:27.812Z,51.79
2019-05-16T09:04:55.741Z,51.81
2019-05-16T09:07:27.083Z,51.85
2019-05-16T09:10:00.275Z,51.85
2019-05-16T09:10:15.891Z,51.78
2019-05-16T09:12:31.343Z,51.92
2019-05-16T09:15:02.760Z,51.86
2019-05-16T09:17:34.249Z,52.00
2019-05-16T09:20:07.402Z,52.01
2019-05-16T09:22:39.177Z,52.06
2019-05-16T09:25:10.704Z,52.10
2019-05-16T09:27:42.131Z,52.13
2019-05-16T09:30:16.798Z,52.26
2019-05-16T09:32:48.103Z,52.21
2019-05-16T09:35:19.587Z,52.34
2019-05-16T09:37:50.869Z,52.16
2019-05-16T09:40:22.258Z,52.24
2019-05-16T09:42:53.864Z,52.23
2019-05-16T09:45:27.241Z,52.33
2019-05-16T09:47:58.227Z,52.28
2019-05-16T09:50:29.426Z,52.29
2019-05-16T09:53:00.719Z,52.22
2019-05-16T09:55:31.983Z,52.30
2019-05-16T09:58:03.353Z,52.38
2019-05-16T10:00:37.358Z,52.48
2019-05-16T10:03:08.554Z,52.63
2019-05-16T10:05:40.109Z,52.68
2019-05-16T10:08:11.567Z,52.60
2019-05-16T10:10:43.620Z,52.68
2019-05-16T10:13:17.967Z,52.78
2019-05-16T10:15:47.931Z,53.25
2019-05-16T10:18:30.709Z,53.05
2019-05-16T10:21:01.918Z,53.19
2019-05-16T10:23:33.196Z,53.03
2019-05-16T10:26:04.439Z,52.97
2019-05-16T10:28:38.388Z,53.03
2019-05-16T10:31:08.585Z,53.08
2019-05-16T10:33:39.793Z,53.08
2019-05-16T10:36:11.165Z,53.14
2019-05-16T10:38:42.533Z,53.19
2019-05-16T10:41:13.894Z,53.27
2019-05-16T10:43:47.302Z,53.25
2019-05-16T10:46:18.099Z,55.10
2019-05-16T10:48:49.299Z,55.09
2019-05-16T10:51:23.762Z,54.89
2019-05-16T10:54:05.664Z,54.69
2019-05-16T10:56:26.487Z,54.49
2019-05-16T10:59:26.061Z,54.49
2019-05-16T11:01:31.471Z,55.89
2019-05-16T11:04:02.925Z,55.96
2019-05-16T11:06:34.235Z,55.74
2019-05-16T11:09:06.923Z,55.59
2019-05-16T11:11:38.510Z,56.54
2019-05-16T11:14:09.785Z,56.62
2019-05-16T11:16:41.065Z,56.38
2019-05-16T11:19:20.053Z,56.19
2019-05-16T11:21:46.964Z,56.08
2019-05-16T11:24:18.362Z,55.99
2019-05-16T11:26:49.802Z,55.85
2019-05-16T11:29:21.020Z,55.80
2019-05-16T11:31:53.385Z,55.79
2019-05-16T11:34:26.664Z,55.72
2019-05-16T11:36:57.789Z,55.72
2019-05-16T11:39:29.208Z,55.79
2019-05-16T11:42:00.635Z,55.71
2019-05-16T11:44:32.194Z,55.86
2019-05-16T11:47:03.441Z,55.76
2019-05-16T11:49:36.754Z,55.71
2019-05-16T11:52:07.731Z,55.76
2019-05-16T11:54:39.037Z,55.73
2019-05-16T11:57:10.276Z,55.76
2019-05-16T11:59:41.545Z,55.74
2019-05-16T12:02:12.851Z,55.73
2019-05-16T12:04:47.030Z,55.74
2019-05-16T12:07:19.106Z,55.79
2019-05-16T12:09:55.078Z,55.79
2019-05-16T12:12:23.105Z,55.80
2019-05-16T12:14:55.956Z,55.89
2019-05-16T12:17:28.051Z,55.95
2019-05-16T12:19:59.734Z,56.00
2019-05-16T12:22:31.239Z,55.98
2019-05-16T12:25:02.643Z,56.01
2019-05-16T12:27:34.410Z,56.02
2019-05-16T12:30:12.917Z,55.93
2019-05-16T12:32:40.473Z,56.07
2019-05-16T12:35:12.571Z,56.05
2019-05-16T12:37:43.801Z,56.05
2019-05-16T12:40:15.681Z,56.04
2019-05-16T12:42:47.370Z,56.04
2019-05-16T12:45:18.944Z,56.07
2019-05-16T12:47:50.288Z,56.08
2019-05-16T12:50:24.014Z,56.15
2019-05-16T12:52:56.930Z,56.14
2019-05-16T12:55:28.386Z,56.14
2019-05-16T12:58:12.777Z,56.17
2019-05-16T13:00:32.710Z,56.14
2019-05-16T13:03:04.076Z,56.11
2019-05-16T13:05:37.565Z,56.13
2019-05-16T13:08:08.626Z,56.07
2019-05-16T13:10:39.849Z,56.05
2019-05-16T13:13:11.137Z,56.10
2019-05-16T13:15:42.585Z,56.07
2019-05-16T13:18:13.917Z,56.12
2019-05-16T13:20:46.797Z,56.20
2019-05-16T13:23:18.552Z,56.21
2019-05-16T13:25:49.731Z,56.15
2019-05-16T13:28:21.053Z,56.29
2019-05-16T13:30:52.356Z,56.21
2019-05-16T13:33:23.601Z,56.22
2019-05-16T13:35:57.603Z,56.32
2019-05-16T13:38:28.206Z,56.31
2019-05-16T13:40:59.624Z,56.32
2019-05-16T13:43:30.965Z,57.80
2019-05-16T13:46:02.315Z,57.91
2019-05-16T13:48:34.231Z,57.70
2019-05-16T13:51:13.949Z,57.56
2019-05-16T13:53:38.786Z,57.44
2019-05-16T13:56:13.332Z,57.32
2019-05-16T13:58:43.019Z,57.22
2019-05-16T14:01:16.964Z,57.13
2019-05-16T14:03:48.182Z,57.07
2019-05-16T14:06:20.053Z,57.01
2019-05-16T14:08:51.377Z,57.01
2019-05-16T14:11:22.846Z,56.98
2019-05-16T14:13:56.303Z,56.96
2019-05-16T14:16:27.317Z,57.00
2019-05-16T14:18:58.643Z,58.29
2019-05-16T14:21:29.903Z,58.46
2019-05-16T14:24:01.153Z,58.96
2019-05-16T14:26:32.551Z,58.99
2019-05-16T14:29:03.889Z,58.79
2019-05-16T14:31:37.695Z,58.60
2019-05-16T14:34:08.993Z,58.41
2019-05-16T14:36:40.270Z,58.32
2019-05-16T14:39:11.623Z,58.30
2019-05-16T14:41:42.929Z,58.29
2019-05-16T14:44:17.982Z,58.24
2019-05-16T14:46:47.707Z,58.20
2019-05-16T14:49:19.515Z,58.13
2019-05-16T14:51:50.989Z,58.13
2019-05-16T14:54:22.783Z,58.05
2019-05-16T14:56:54.112Z,58.00
2019-05-16T14:59:27.866Z,57.93
2019-05-16T15:01:58.668Z,58.78
2019-05-16T15:04:30.267Z,59.61
2019-05-16T15:07:01.848Z,60.15
2019-05-16T15:09:33.445Z,60.25
2019-05-16T15:12:06.881Z,60.06
2019-05-16T15:14:38.073Z,59.84
2019-05-16T15:17:09.555Z,59.66
2019-05-16T15:19:40.874Z,59.62
2019-05-16T15:22:12.174Z,59.51
2019-05-16T15:24:43.614Z,59.38
2019-05-16T15:27:29.990Z,59.31
2019-05-16T15:30:09.981Z,59.27
2019-05-16T15:32:42.512Z,59.24
2019-05-16T15:35:22.706Z,59.17
2019-05-16T15:37:58.774Z,59.14
2019-05-16T15:40:28.323Z,59.10
2019-05-16T15:42:59.651Z,59.08
2019-05-16T15:45:43.388Z,59.02
2019-05-16T15:48:17.182Z,59.01
2019-05-16T15:50:48.392Z,59.02
2019-05-16T15:53:19.615Z,59.01
2019-05-16T15:55:51.006Z,58.97
2019-05-16T15:58:22.372Z,58.96
2019-05-16T16:00:57.616Z,58.96
2019-05-16T16:03:28.030Z,58.98
2019-05-16T16:05:59.239Z,58.98
2019-05-16T16:08:30.571Z,59.00
2019-05-16T16:11:01.820Z,58.97
2019-05-16T16:13:33.161Z,58.98
2019-05-16T16:16:09.204Z,58.97
2019-05-16T16:18:37.966Z,58.97
2019-05-16T16:21:09.413Z,58.98
2019-05-16T16:23:40.723Z,59.00
2019-05-16T16:26:12.026Z,58.94
2019-05-16T16:28:43.280Z,58.96
2019-05-16T16:31:16.700Z,58.98
2019-05-16T16:33:48.505Z,58.96
2019-05-16T16:36:19.697Z,59.04
2019-05-16T16:38:50.884Z,59.03
2019-05-16T16:41:22.129Z,59.04
2019-05-16T16:43:53.375Z,58.98
2019-05-16T16:46:26.924Z,58.98
2019-05-16T16:48:57.688Z,58.98
2019-05-16T16:51:29.117Z,59.00
2019-05-16T16:54:01.299Z,59.04
2019-05-16T16:56:32.681Z,59.05
2019-05-16T16:59:06.304Z,59.07
2019-05-16T17:01:37.346Z,59.08
2019-05-16T17:04:11.713Z,59.10
2019-05-16T17:06:43.076Z,59.14
2019-05-16T17:09:14.594Z,59.17
2019-05-16T17:11:46.547Z,59.17
2019-05-16T17:14:17.930Z,59.14
2019-05-16T17:16:49.185Z,59.15
2019-05-16T17:19:20.502Z,59.17
2019-05-16T17:22:06.310Z,59.20
2019-05-16T17:24:27.235Z,59.25
2019-05-16T17:26:59.252Z,59.27
2019-05-16T17:29:30.722Z,59.31
2019-05-16T17:32:07.115Z,59.30
2019-05-16T17:34:37.159Z,59.34
2019-05-16T17:37:09.683Z,59.34
2019-05-16T17:39:41.193Z,59.37
2019-05-16T17:42:12.606Z,59.42
2019-05-16T17:44:44.078Z,59.41
2019-05-16T17:47:17.327Z,59.43
2019-05-16T17:49:48.305Z,59.45
2019-05-16T17:52:19.556Z,59.46
2019-05-16T17:54:53.258Z,59.48
2019-05-16T17:57:23.756Z,59.50
2019-05-16T17:59:57.252Z,59.54
2019-05-16T18:02:28.036Z,59.54
2019-05-16T18:04:59.645Z,59.59
2019-05-16T18:07:31.129Z,59.62
2019-05-16T18:10:07.492Z,59.67
2019-05-16T18:12:41.021Z,59.67
2019-05-16T18:15:14.725Z,59.71
2019-05-16T18:17:47.286Z,59.74
2019-05-16T18:20:22.020Z,59.74
2019-05-16T18:22:51.983Z,59.75
2019-05-16T18:25:26.767Z,59.77
2019-05-16T18:27:57.340Z,59.82
2019-05-16T18:30:28.565Z,59.85
2019-05-16T18:32:59.938Z,59.89
2019-05-16T18:35:31.295Z,59.87
2019-05-16T18:38:02.712Z,59.92
2019-05-16T18:40:36.471Z,59.88
2019-05-16T18:43:08.216Z,59.89
2019-05-16T18:45:39.826Z,59.88
2019-05-16T18:48:12.117Z,59.89
2019-05-16T18:50:43.305Z,59.92
2019-05-16T18:53:17.648Z,59.93
2019-05-16T18:55:48.756Z,59.95
2019-05-16T18:58:20.124Z,59.96
2019-05-16T19:00:51.288Z,59.97
2019-05-16T19:03:22.696Z,59.99
2019-05-16T19:05:57.243Z,60.02
2019-05-16T19:08:27.888Z,60.08
2019-05-16T19:11:00.082Z,60.15
2019-05-16T19:13:32.647Z,60.15
2019-05-16T19:16:06.310Z,60.24
2019-05-16T19:18:37.322Z,60.20
2019-05-16T19:21:09.614Z,60.23
2019-05-16T19:23:40.910Z,60.26
2019-05-16T19:26:13.370Z,60.27
2019-05-16T19:28:49.024Z,60.30
2019-05-16T19:31:22.365Z,60.32
2019-05-16T19:33:56.543Z,60.30
2019-05-16T19:36:27.326Z,60.32
2019-05-16T19:38:59.268Z,60.35
2019-05-16T19:41:31.491Z,60.37
2019-05-16T19:44:02.970Z,60.40
2019-05-16T19:46:34.497Z,60.44
2019-05-16T19:49:06.461Z,60.48
2019-05-16T19:51:39.053Z,60.48
2019-05-16T19:54:10.434Z,60.50
2019-05-16T19:56:41.813Z,60.55
2019-05-16T19:59:13.104Z,60.54
2019-05-16T20:01:46.377Z,60.56
2019-05-16T20:04:18.496Z,60.55
2019-05-16T20:06:50.245Z,60.58
2019-05-16T20:09:21.756Z,60.58
2019-05-16T20:11:53.649Z,60.61
2019-05-16T20:14:27.201Z,60.63
2019-05-16T20:16:58.408Z,60.67
2019-05-16T20:19:29.723Z,60.67
2019-05-16T20:22:00.921Z,60.69
2019-05-16T20:24:32.295Z,60.69
2019-05-16T20:27:07.863Z,60.69
2019-05-16T20:29:38.442Z,60.71
2019-05-16T20:32:11.461Z,60.69
2019-05-16T20:34:42.720Z,60.69
2019-05-16T20:37:14.032Z,60.72
2019-05-16T20:39:46.598Z,60.72
2019-05-16T20:42:18.087Z,60.76
2019-05-16T20:44:49.735Z,60.74
2019-05-16T20:47:21.499Z,60.74
2019-05-16T20:49:52.944Z,60.79
2019-05-16T20:52:26.762Z,60.85
2019-05-16T20:54:57.935Z,60.86
2019-05-16T20:57:29.170Z,60.91
2019-05-16T21:00:00.403Z,60.91
2019-05-16T21:02:31.844Z,60.94
2019-05-16T21:05:03.028Z,60.95
2019-05-16T21:07:34.343Z,60.98
2019-05-16T21:10:08.044Z,61.00
2019-05-16T21:12:40.507Z,61.00
2019-05-16T21:15:11.978Z,61.01
2019-05-16T21:17:43.188Z,61.00
2019-05-16T21:20:14.428Z,61.03
2019-05-16T21:22:47.132Z,61.03
2019-05-16T21:25:18.932Z,61.02
2019-05-16T21:27:50.287Z,61.07
2019-05-16T21:30:21.552Z,61.06
2019-05-16T21:32:52.922Z,61.05
2019-05-16T21:35:26.820Z,61.08
2019-05-16T21:37:57.205Z,61.09
2019-05-16T21:40:31.453Z,61.13
2019-05-16T21:43:02.740Z,61.14
2019-05-16T21:45:33.970Z,61.16
2019-05-16T21:48:07.378Z,61.18
2019-05-16T21:50:38.376Z,61.20
2019-05-16T21:53:09.716Z,61.19
2019-05-16T21:55:41.235Z,61.23
2019-05-16T21:58:12.591Z,61.23
2019-05-16T22:00:47.427Z,61.26
2019-05-16T22:03:19.082Z,61.26
2019-05-16T22:05:50.359Z,61.27
2019-05-16T22:08:21.540Z,61.27
2019-05-16T22:10:52.804Z,61.30
2019-05-16T22:13:26.153Z,61.32
2019-05-16T22:15:57.492Z,61.35
2019-05-16T22:18:29.859Z,61.36
2019-05-16T22:21:01.059Z,61.37
2019-05-16T22:23:32.243Z,61.42
2019-05-16T22:26:03.507Z,61.44
2019-05-16T22:28:37.231Z,61.43
2019-05-16T22:31:07.783Z,61.45
2019-05-16T22:33:39.082Z,61.45
2019-05-16T22:36:10.564Z,61.47
2019-05-16T22:38:42.072Z,61.48
2019-05-16T22:41:13.405Z,61.50
2019-05-16T22:43:46.685Z,61.55
2019-05-16T22:46:17.936Z,61.58
2019-05-16T22:48:49.272Z,61.57
2019-05-16T22:51:20.398Z,61.68
2019-05-16T22:53:51.805Z,61.62
2019-05-16T22:56:23.035Z,61.64
2019-05-16T22:58:56.344Z,61.65
2019-05-16T23:01:27.320Z,61.65
2019-05-16T23:03:58.668Z,61.67
2019-05-16T23:06:29.906Z,61.65
2019-05-16T23:09:01.122Z,61.67
2019-05-16T23:11:32.894Z,61.67
2019-05-16T23:14:06.298Z,61.69
2019-05-16T23:16:37.649Z,61.67
2019-05-16T23:19:08.860Z,61.67
2019-05-16T23:21:40.123Z,61.66
2019-05-16T23:24:11.389Z,61.64
2019-05-16T23:26:42.784Z,61.64
2019-05-16T23:29:16.722Z,61.63
2019-05-16T23:31:47.354Z,61.67
2019-05-16T23:34:18.973Z,61.67
2019-05-16T23:36:50.072Z,61.74
2019-05-16T23:39:21.361Z,61.70
2019-05-16T23:41:52.487Z,61.69
2019-05-16T23:44:23.711Z,61.79
2019-05-16T23:46:56.343Z,61.77
2019-05-16T23:49:28.749Z,61.80
2019-05-16T23:52:00.096Z,61.84
2019-05-16T23:54:31.388Z,61.85
2019-05-16T23:57:02.637Z,61.82
2019-05-16T23:59:36.807Z,61.83
